sensor_id;sensor_type;location;lat;lon;timestamp;temperature;humidity
61386;DHT22;47256;18.904;-99.054;2023-02-23T00:02:00;25.50;55.80
61386;DHT22;47256;18.904;-99.054;2023-02-23T00:04:34;25.40;55.70
61386;DHT22;47256;18.904;-99.054;2023-02-23T00:07:02;25.40;56.20
61386;DHT22;47256;18.904;-99.054;2023-02-23T00:09:29;25.40;56.50
61386;DHT22;47256;18.904;-99.054;2023-02-23T00:12:03;25.40;56.00
61386;DHT22;47256;18.904;-99.054;2023-02-23T00:14:35;25.30;55.90
61386;DHT22;47256;18.904;-99.054;2023-02-23T00:17:06;25.30;56.40
61386;DHT22;47256;18.904;-99.054;2023-02-23T00:19:40;25.20;58.70
61386;DHT22;47256;18.904;-99.054;2023-02-23T00:22:08;25.20;56.90
61386;DHT22;47256;18.904;-99.054;2023-02-23T00:24:37;25.10;57.40
61386;DHT22;47256;18.904;-99.054;2023-02-23T00:27:04;25.00;56.70
61386;DHT22;47256;18.904;-99.054;2023-02-23T00:29:33;25.00;57.00
61386;DHT22;47256;18.904;-99.054;2023-02-23T00:32:05;25.00;57.40
61386;DHT22;47256;18.904;-99.054;2023-02-23T00:34:34;24.90;58.20
61386;DHT22;47256;18.904;-99.054;2023-02-23T00:37:03;24.90;58.70
61386;DHT22;47256;18.904;-99.054;2023-02-23T00:39:31;24.80;60.10
61386;DHT22;47256;18.904;-99.054;2023-02-23T00:41:59;24.80;58.80
61386;DHT22;47256;18.904;-99.054;2023-02-23T00:44:28;24.70;58.90
61386;DHT22;47256;18.904;-99.054;2023-02-23T00:46:56;24.60;59.90
61386;DHT22;47256;18.904;-99.054;2023-02-23T00:49:23;24.60;59.60
61386;DHT22;47256;18.904;-99.054;2023-02-23T00:51:52;24.50;60.40
61386;DHT22;47256;18.904;-99.054;2023-02-23T00:54:20;24.50;60.50
61386;DHT22;47256;18.904;-99.054;2023-02-23T00:56:48;24.40;61.40
61386;DHT22;47256;18.904;-99.054;2023-02-23T00:59:16;24.40;62.40
61386;DHT22;47256;18.904;-99.054;2023-02-23T01:01:45;24.30;62.00
61386;DHT22;47256;18.904;-99.054;2023-02-23T01:04:14;24.20;63.80
61386;DHT22;47256;18.904;-99.054;2023-02-23T01:06:42;24.20;63.20
61386;DHT22;47256;18.904;-99.054;2023-02-23T01:09:15;24.10;62.80
61386;DHT22;47256;18.904;-99.054;2023-02-23T01:12:04;24.10;63.30
61386;DHT22;47256;18.904;-99.054;2023-02-23T01:14:33;24.00;64.30
61386;DHT22;47256;18.904;-99.054;2023-02-23T01:17:01;23.90;65.60
61386;DHT22;47256;18.904;-99.054;2023-02-23T01:19:28;23.90;65.30
61386;DHT22;47256;18.904;-99.054;2023-02-23T01:21:59;23.80;63.80
61386;DHT22;47256;18.904;-99.054;2023-02-23T01:24:28;23.70;65.20
61386;DHT22;47256;18.904;-99.054;2023-02-23T01:26:55;23.70;65.80
61386;DHT22;47256;18.904;-99.054;2023-02-23T01:29:23;23.60;66.00
61386;DHT22;47256;18.904;-99.054;2023-02-23T01:31:50;23.60;66.10
61386;DHT22;47256;18.904;-99.054;2023-02-23T01:34:18;23.50;66.90
61386;DHT22;47256;18.904;-99.054;2023-02-23T01:36:47;23.50;65.80
61386;DHT22;47256;18.904;-99.054;2023-02-23T01:39:17;23.50;66.20
61386;DHT22;47256;18.904;-99.054;2023-02-23T01:41:45;23.40;65.90
61386;DHT22;47256;18.904;-99.054;2023-02-23T01:46:44;23.30;66.10
61386;DHT22;47256;18.904;-99.054;2023-02-23T01:49:20;23.30;65.30
61386;DHT22;47256;18.904;-99.054;2023-02-23T01:52:04;23.20;66.90
61386;DHT22;47256;18.904;-99.054;2023-02-23T01:54:42;23.10;67.90
61386;DHT22;47256;18.904;-99.054;2023-02-23T01:57:13;23.00;67.50
61386;DHT22;47256;18.904;-99.054;2023-02-23T01:59:44;22.90;66.10
61386;DHT22;47256;18.904;-99.054;2023-02-23T02:02:12;23.00;66.70
61386;DHT22;47256;18.904;-99.054;2023-02-23T02:04:41;22.90;66.30
61386;DHT22;47256;18.904;-99.054;2023-02-23T02:07:19;23.00;67.10
61386;DHT22;47256;18.904;-99.054;2023-02-23T02:09:51;22.90;67.10
61386;DHT22;47256;18.904;-99.054;2023-02-23T02:12:44;22.90;68.50
61386;DHT22;47256;18.904;-99.054;2023-02-23T02:15:13;22.90;67.60
61386;DHT22;47256;18.904;-99.054;2023-02-23T02:23:45;22.80;69.20
61386;DHT22;47256;18.904;-99.054;2023-02-23T02:31:56;22.20;70.80
61386;DHT22;47256;18.904;-99.054;2023-02-23T02:40:32;22.00;71.60
61386;DHT22;47256;18.904;-99.054;2023-02-23T02:51:15;22.00;71.60
61386;DHT22;47256;18.904;-99.054;2023-02-23T02:53:55;22.00;71.30
61386;DHT22;47256;18.904;-99.054;2023-02-23T02:56:27;22.10;71.10
61386;DHT22;47256;18.904;-99.054;2023-02-23T02:58:55;22.10;71.30
61386;DHT22;47256;18.904;-99.054;2023-02-23T03:01:23;22.00;73.50
61386;DHT22;47256;18.904;-99.054;2023-02-23T03:04:22;22.00;73.60
61386;DHT22;47256;18.904;-99.054;2023-02-23T03:07:30;21.90;73.70
61386;DHT22;47256;18.904;-99.054;2023-02-23T03:11:13;21.90;73.40
61386;DHT22;47256;18.904;-99.054;2023-02-23T03:20:00;21.90;72.40
61386;DHT22;47256;18.904;-99.054;2023-02-23T03:23:27;21.80;73.20
61386;DHT22;47256;18.904;-99.054;2023-02-23T03:26:22;21.80;72.90
61386;DHT22;47256;18.904;-99.054;2023-02-23T03:41:02;21.30;75.50
61386;DHT22;47256;18.904;-99.054;2023-02-23T03:43:57;21.30;74.80
61386;DHT22;47256;18.904;-99.054;2023-02-23T03:46:46;21.30;75.50
61386;DHT22;47256;18.904;-99.054;2023-02-23T03:49:35;21.30;76.90
61386;DHT22;47256;18.904;-99.054;2023-02-23T03:52:29;21.20;75.70
61386;DHT22;47256;18.904;-99.054;2023-02-23T03:55:20;21.20;75.90
61386;DHT22;47256;18.904;-99.054;2023-02-23T03:58:10;21.10;77.50
61386;DHT22;47256;18.904;-99.054;2023-02-23T04:01:00;20.90;76.90
61386;DHT22;47256;18.904;-99.054;2023-02-23T04:03:48;21.00;76.10
61386;DHT22;47256;18.904;-99.054;2023-02-23T04:06:38;21.00;75.70
61386;DHT22;47256;18.904;-99.054;2023-02-23T04:09:26;21.00;76.70
61386;DHT22;47256;18.904;-99.054;2023-02-23T04:12:20;21.10;76.30
61386;DHT22;47256;18.904;-99.054;2023-02-23T04:15:30;21.10;76.20
61386;DHT22;47256;18.904;-99.054;2023-02-23T04:17:59;21.10;76.80
61386;DHT22;47256;18.904;-99.054;2023-02-23T04:20:27;21.10;75.90
61386;DHT22;47256;18.904;-99.054;2023-02-23T04:22:55;21.00;76.20
61386;DHT22;47256;18.904;-99.054;2023-02-23T04:25:22;20.90;77.10
61386;DHT22;47256;18.904;-99.054;2023-02-23T04:27:50;20.60;77.20
61386;DHT22;47256;18.904;-99.054;2023-02-23T04:30:18;20.50;78.00
61386;DHT22;47256;18.904;-99.054;2023-02-23T04:32:46;20.40;78.10
61386;DHT22;47256;18.904;-99.054;2023-02-23T04:35:13;20.50;78.00
61386;DHT22;47256;18.904;-99.054;2023-02-23T04:37:41;20.50;78.40
61386;DHT22;47256;18.904;-99.054;2023-02-23T04:40:08;20.50;78.10
61386;DHT22;47256;18.904;-99.054;2023-02-23T04:42:38;20.50;78.60
61386;DHT22;47256;18.904;-99.054;2023-02-23T04:45:06;20.50;78.10
61386;DHT22;47256;18.904;-99.054;2023-02-23T04:47:34;20.50;78.20
61386;DHT22;47256;18.904;-99.054;2023-02-23T04:50:02;20.50;78.30
61386;DHT22;47256;18.904;-99.054;2023-02-23T04:52:30;20.40;78.20
61386;DHT22;47256;18.904;-99.054;2023-02-23T04:54:57;20.30;78.40
61386;DHT22;47256;18.904;-99.054;2023-02-23T04:57:25;20.30;77.70
61386;DHT22;47256;18.904;-99.054;2023-02-23T04:59:54;20.20;76.50
61386;DHT22;47256;18.904;-99.054;2023-02-23T05:02:22;20.20;76.40
61386;DHT22;47256;18.904;-99.054;2023-02-23T05:04:50;20.30;77.30
61386;DHT22;47256;18.904;-99.054;2023-02-23T05:07:17;20.10;76.50
61386;DHT22;47256;18.904;-99.054;2023-02-23T05:09:44;20.00;77.00
61386;DHT22;47256;18.904;-99.054;2023-02-23T05:12:12;19.90;77.30
61386;DHT22;47256;18.904;-99.054;2023-02-23T05:14:39;19.90;77.80
61386;DHT22;47256;18.904;-99.054;2023-02-23T05:17:07;20.00;76.90
61386;DHT22;47256;18.904;-99.054;2023-02-23T05:19:35;20.20;77.10
61386;DHT22;47256;18.904;-99.054;2023-02-23T05:22:03;20.20;76.30
61386;DHT22;47256;18.904;-99.054;2023-02-23T05:24:31;20.10;76.90
61386;DHT22;47256;18.904;-99.054;2023-02-23T05:26:58;20.10;76.10
61386;DHT22;47256;18.904;-99.054;2023-02-23T05:29:25;20.00;76.70
61386;DHT22;47256;18.904;-99.054;2023-02-23T05:31:53;20.00;76.60
61386;DHT22;47256;18.904;-99.054;2023-02-23T05:34:20;19.90;75.60
61386;DHT22;47256;18.904;-99.054;2023-02-23T05:36:47;19.70;75.80
61386;DHT22;47256;18.904;-99.054;2023-02-23T05:39:15;19.50;77.10
61386;DHT22;47256;18.904;-99.054;2023-02-23T05:41:42;19.50;78.40
61386;DHT22;47256;18.904;-99.054;2023-02-23T05:44:10;19.60;76.40
61386;DHT22;47256;18.904;-99.054;2023-02-23T05:46:37;19.60;77.10
61386;DHT22;47256;18.904;-99.054;2023-02-23T05:49:04;19.70;76.60
61386;DHT22;47256;18.904;-99.054;2023-02-23T05:51:33;19.70;76.60
61386;DHT22;47256;18.904;-99.054;2023-02-23T05:54:01;19.70;76.60
61386;DHT22;47256;18.904;-99.054;2023-02-23T05:56:28;19.60;76.30
61386;DHT22;47256;18.904;-99.054;2023-02-23T05:58:56;19.60;75.20
61386;DHT22;47256;18.904;-99.054;2023-02-23T06:01:26;19.50;76.40
61386;DHT22;47256;18.904;-99.054;2023-02-23T06:03:53;19.40;78.30
61386;DHT22;47256;18.904;-99.054;2023-02-23T06:06:23;19.20;77.10
61386;DHT22;47256;18.904;-99.054;2023-02-23T06:08:52;19.30;76.80
61386;DHT22;47256;18.904;-99.054;2023-02-23T06:11:19;19.30;77.80
61386;DHT22;47256;18.904;-99.054;2023-02-23T06:13:47;19.30;77.60
61386;DHT22;47256;18.904;-99.054;2023-02-23T06:16:15;19.30;77.20
61386;DHT22;47256;18.904;-99.054;2023-02-23T06:18:42;19.30;76.90
61386;DHT22;47256;18.904;-99.054;2023-02-23T06:21:10;19.40;78.00
61386;DHT22;47256;18.904;-99.054;2023-02-23T06:23:37;19.30;77.30
61386;DHT22;47256;18.904;-99.054;2023-02-23T06:26:04;19.30;77.20
61386;DHT22;47256;18.904;-99.054;2023-02-23T06:28:31;19.20;77.50
61386;DHT22;47256;18.904;-99.054;2023-02-23T06:30:59;19.00;77.80
61386;DHT22;47256;18.904;-99.054;2023-02-23T06:33:26;18.90;77.00
61386;DHT22;47256;18.904;-99.054;2023-02-23T06:35:54;18.90;76.70
61386;DHT22;47256;18.904;-99.054;2023-02-23T06:38:22;19.00;76.30
61386;DHT22;47256;18.904;-99.054;2023-02-23T06:40:49;19.00;76.60
61386;DHT22;47256;18.904;-99.054;2023-02-23T06:43:16;19.10;77.10
61386;DHT22;47256;18.904;-99.054;2023-02-23T06:45:45;19.10;77.10
61386;DHT22;47256;18.904;-99.054;2023-02-23T06:48:13;19.20;77.10
61386;DHT22;47256;18.904;-99.054;2023-02-23T06:50:40;19.20;77.10
61386;DHT22;47256;18.904;-99.054;2023-02-23T06:53:08;19.10;78.10
61386;DHT22;47256;18.904;-99.054;2023-02-23T06:55:35;19.10;78.10
61386;DHT22;47256;18.904;-99.054;2023-02-23T06:58:03;19.10;77.80
61386;DHT22;47256;18.904;-99.054;2023-02-23T07:00:32;19.10;77.70
61386;DHT22;47256;18.904;-99.054;2023-02-23T07:02:59;19.10;78.20
61386;DHT22;47256;18.904;-99.054;2023-02-23T07:05:27;19.10;78.20
61386;DHT22;47256;18.904;-99.054;2023-02-23T07:07:55;19.00;78.10
61386;DHT22;47256;18.904;-99.054;2023-02-23T07:10:22;19.00;77.80
61386;DHT22;47256;18.904;-99.054;2023-02-23T07:12:49;19.00;77.90
61386;DHT22;47256;18.904;-99.054;2023-02-23T07:15:19;19.00;78.20
61386;DHT22;47256;18.904;-99.054;2023-02-23T07:17:46;19.00;78.40
61386;DHT22;47256;18.904;-99.054;2023-02-23T07:20:15;18.90;78.30
61386;DHT22;47256;18.904;-99.054;2023-02-23T07:22:42;18.90;78.20
61386;DHT22;47256;18.904;-99.054;2023-02-23T07:25:10;18.90;77.60
61386;DHT22;47256;18.904;-99.054;2023-02-23T07:27:37;18.90;78.60
61386;DHT22;47256;18.904;-99.054;2023-02-23T07:30:05;18.90;78.70
61386;DHT22;47256;18.904;-99.054;2023-02-23T07:32:32;18.60;79.60
61386;DHT22;47256;18.904;-99.054;2023-02-23T07:35:00;18.40;80.60
61386;DHT22;47256;18.904;-99.054;2023-02-23T07:37:27;18.40;81.20
61386;DHT22;47256;18.904;-99.054;2023-02-23T07:39:54;18.40;81.40
61386;DHT22;47256;18.904;-99.054;2023-02-23T07:42:21;18.50;82.00
61386;DHT22;47256;18.904;-99.054;2023-02-23T07:44:48;18.60;82.30
61386;DHT22;47256;18.904;-99.054;2023-02-23T07:47:16;18.60;82.20
61386;DHT22;47256;18.904;-99.054;2023-02-23T07:49:43;18.70;82.20
61386;DHT22;47256;18.904;-99.054;2023-02-23T07:52:10;18.70;82.30
61386;DHT22;47256;18.904;-99.054;2023-02-23T07:54:37;18.70;82.50
61386;DHT22;47256;18.904;-99.054;2023-02-23T07:57:04;18.60;79.30
61386;DHT22;47256;18.904;-99.054;2023-02-23T07:59:32;18.40;77.50
61386;DHT22;47256;18.904;-99.054;2023-02-23T08:01:59;18.40;80.80
61386;DHT22;47256;18.904;-99.054;2023-02-23T08:04:26;18.30;79.30
61386;DHT22;47256;18.904;-99.054;2023-02-23T08:06:53;18.30;80.20
61386;DHT22;47256;18.904;-99.054;2023-02-23T08:09:21;18.20;81.10
61386;DHT22;47256;18.904;-99.054;2023-02-23T08:11:48;18.20;81.00
61386;DHT22;47256;18.904;-99.054;2023-02-23T08:14:15;18.20;80.90
61386;DHT22;47256;18.904;-99.054;2023-02-23T08:16:42;18.20;81.40
61386;DHT22;47256;18.904;-99.054;2023-02-23T08:19:10;18.20;81.10
61386;DHT22;47256;18.904;-99.054;2023-02-23T08:21:37;18.20;81.60
61386;DHT22;47256;18.904;-99.054;2023-02-23T08:24:05;18.20;82.10
61386;DHT22;47256;18.904;-99.054;2023-02-23T08:26:35;18.20;81.90
61386;DHT22;47256;18.904;-99.054;2023-02-23T08:29:04;18.20;82.30
61386;DHT22;47256;18.904;-99.054;2023-02-23T08:31:31;18.20;82.10
61386;DHT22;47256;18.904;-99.054;2023-02-23T08:33:59;18.20;82.10
61386;DHT22;47256;18.904;-99.054;2023-02-23T08:36:26;18.10;82.10
61386;DHT22;47256;18.904;-99.054;2023-02-23T08:38:54;18.00;81.50
61386;DHT22;47256;18.904;-99.054;2023-02-23T08:41:21;17.90;80.30
61386;DHT22;47256;18.904;-99.054;2023-02-23T08:43:49;17.80;78.40
61386;DHT22;47256;18.904;-99.054;2023-02-23T08:46:16;17.70;78.50
61386;DHT22;47256;18.904;-99.054;2023-02-23T08:48:46;17.80;80.00
61386;DHT22;47256;18.904;-99.054;2023-02-23T08:51:13;17.80;80.50
61386;DHT22;47256;18.904;-99.054;2023-02-23T08:53:40;17.80;79.80
61386;DHT22;47256;18.904;-99.054;2023-02-23T08:56:09;17.90;79.20
61386;DHT22;47256;18.904;-99.054;2023-02-23T08:58:37;17.90;79.70
61386;DHT22;47256;18.904;-99.054;2023-02-23T09:01:04;17.90;80.40
61386;DHT22;47256;18.904;-99.054;2023-02-23T09:03:33;17.90;80.10
61386;DHT22;47256;18.904;-99.054;2023-02-23T09:06:08;17.90;79.40
61386;DHT22;47256;18.904;-99.054;2023-02-23T09:08:36;18.00;79.70
61386;DHT22;47256;18.904;-99.054;2023-02-23T09:11:05;18.00;79.80
61386;DHT22;47256;18.904;-99.054;2023-02-23T09:13:32;18.00;79.20
61386;DHT22;47256;18.904;-99.054;2023-02-23T09:16:01;18.00;79.40
61386;DHT22;47256;18.904;-99.054;2023-02-23T09:18:29;18.00;79.10
61386;DHT22;47256;18.904;-99.054;2023-02-23T09:20:58;18.00;79.20
61386;DHT22;47256;18.904;-99.054;2023-02-23T09:23:28;17.80;80.30
61386;DHT22;47256;18.904;-99.054;2023-02-23T09:25:55;17.70;80.80
61386;DHT22;47256;18.904;-99.054;2023-02-23T09:28:22;17.60;81.50
61386;DHT22;47256;18.904;-99.054;2023-02-23T09:30:52;17.70;82.10
61386;DHT22;47256;18.904;-99.054;2023-02-23T09:33:20;17.70;82.50
61386;DHT22;47256;18.904;-99.054;2023-02-23T09:35:47;17.60;82.60
61386;DHT22;47256;18.904;-99.054;2023-02-23T09:38:15;17.60;83.40
61386;DHT22;47256;18.904;-99.054;2023-02-23T09:40:48;17.60;83.70
61386;DHT22;47256;18.904;-99.054;2023-02-23T09:49:04;17.40;84.70
61386;DHT22;47256;18.904;-99.054;2023-02-23T09:51:39;17.40;84.70
61386;DHT22;47256;18.904;-99.054;2023-02-23T09:54:11;17.50;84.70
61386;DHT22;47256;18.904;-99.054;2023-02-23T09:56:47;17.50;85.00
61386;DHT22;47256;18.904;-99.054;2023-02-23T09:59:18;17.40;85.20
61386;DHT22;47256;18.904;-99.054;2023-02-23T10:02:15;17.40;85.40
61386;DHT22;47256;18.904;-99.054;2023-02-23T10:04:46;17.50;85.30
61386;DHT22;47256;18.904;-99.054;2023-02-23T10:13:03;17.00;84.40
61386;DHT22;47256;18.904;-99.054;2023-02-23T10:15:43;17.10;85.10
61386;DHT22;47256;18.904;-99.054;2023-02-23T10:18:19;17.10;85.40
61386;DHT22;47256;18.904;-99.054;2023-02-23T10:20:58;17.10;85.20
61386;DHT22;47256;18.904;-99.054;2023-02-23T10:26:04;17.20;84.80
61386;DHT22;47256;18.904;-99.054;2023-02-23T10:28:35;17.20;85.00
61386;DHT22;47256;18.904;-99.054;2023-02-23T10:31:26;17.30;84.80
61386;DHT22;47256;18.904;-99.054;2023-02-23T10:33:57;17.20;84.70
61386;DHT22;47256;18.904;-99.054;2023-02-23T10:36:36;17.20;84.80
61386;DHT22;47256;18.904;-99.054;2023-02-23T10:39:07;17.20;84.70
61386;DHT22;47256;18.904;-99.054;2023-02-23T10:41:38;17.20;85.20
61386;DHT22;47256;18.904;-99.054;2023-02-23T10:44:10;17.20;85.10
61386;DHT22;47256;18.904;-99.054;2023-02-23T10:46:41;17.10;84.90
61386;DHT22;47256;18.904;-99.054;2023-02-23T10:49:18;17.00;84.60
61386;DHT22;47256;18.904;-99.054;2023-02-23T10:51:50;16.90;84.60
61386;DHT22;47256;18.904;-99.054;2023-02-23T10:54:44;16.90;84.10
61386;DHT22;47256;18.904;-99.054;2023-02-23T10:57:34;16.80;84.30
61386;DHT22;47256;18.904;-99.054;2023-02-23T11:02:46;16.70;83.40
61386;DHT22;47256;18.904;-99.054;2023-02-23T11:05:35;16.70;83.90
61386;DHT22;47256;18.904;-99.054;2023-02-23T11:13:47;16.70;83.30
61386;DHT22;47256;18.904;-99.054;2023-02-23T11:16:19;16.70;83.70
61386;DHT22;47256;18.904;-99.054;2023-02-23T11:21:32;16.70;83.60
61386;DHT22;47256;18.904;-99.054;2023-02-23T11:24:23;16.70;83.90
61386;DHT22;47256;18.904;-99.054;2023-02-23T11:26:54;16.70;83.80
61386;DHT22;47256;18.904;-99.054;2023-02-23T11:32:00;16.60;84.00
61386;DHT22;47256;18.904;-99.054;2023-02-23T11:34:34;16.60;84.40
61386;DHT22;47256;18.904;-99.054;2023-02-23T11:37:18;16.60;83.90
61386;DHT22;47256;18.904;-99.054;2023-02-23T11:39:59;16.60;83.70
61386;DHT22;47256;18.904;-99.054;2023-02-23T11:42:31;16.60;83.40
61386;DHT22;47256;18.904;-99.054;2023-02-23T11:45:14;16.60;83.60
61386;DHT22;47256;18.904;-99.054;2023-02-23T11:47:46;16.60;83.60
61386;DHT22;47256;18.904;-99.054;2023-02-23T11:50:24;16.60;83.90
61386;DHT22;47256;18.904;-99.054;2023-02-23T11:52:57;16.60;84.10
61386;DHT22;47256;18.904;-99.054;2023-02-23T11:55:28;16.60;84.00
61386;DHT22;47256;18.904;-99.054;2023-02-23T12:00:42;16.50;84.10
61386;DHT22;47256;18.904;-99.054;2023-02-23T12:03:16;16.50;84.00
61386;DHT22;47256;18.904;-99.054;2023-02-23T12:05:50;16.40;84.20
61386;DHT22;47256;18.904;-99.054;2023-02-23T12:08:27;16.40;84.30
61386;DHT22;47256;18.904;-99.054;2023-02-23T12:11:02;16.30;84.50
61386;DHT22;47256;18.904;-99.054;2023-02-23T12:13:37;16.20;85.60
61386;DHT22;47256;18.904;-99.054;2023-02-23T12:21:39;16.10;86.50
61386;DHT22;47256;18.904;-99.054;2023-02-23T12:38:11;16.20;87.70
61386;DHT22;47256;18.904;-99.054;2023-02-23T12:40:41;16.20;87.00
61386;DHT22;47256;18.904;-99.054;2023-02-23T12:43:26;16.00;86.70
61386;DHT22;47256;18.904;-99.054;2023-02-23T12:46:40;15.80;87.30
61386;DHT22;47256;18.904;-99.054;2023-02-23T12:49:10;15.60;87.40
61386;DHT22;47256;18.904;-99.054;2023-02-23T12:51:57;15.60;87.60
61386;DHT22;47256;18.904;-99.054;2023-02-23T12:54:27;15.60;87.50
61386;DHT22;47256;18.904;-99.054;2023-02-23T12:58:11;15.60;87.10
61386;DHT22;47256;18.904;-99.054;2023-02-23T13:00:44;15.60;87.80
61386;DHT22;47256;18.904;-99.054;2023-02-23T13:06:19;15.50;88.30
61386;DHT22;47256;18.904;-99.054;2023-02-23T13:14:29;15.50;87.80
61386;DHT22;47256;18.904;-99.054;2023-02-23T13:20:05;15.70;86.70
61386;DHT22;47256;18.904;-99.054;2023-02-23T13:26:12;15.60;87.60
61386;DHT22;47256;18.904;-99.054;2023-02-23T13:31:26;15.60;86.90
61386;DHT22;47256;18.904;-99.054;2023-02-23T13:33:57;15.80;86.80
61386;DHT22;47256;18.904;-99.054;2023-02-23T13:36:27;15.90;85.40
61386;DHT22;47256;18.904;-99.054;2023-02-23T13:44:40;16.10;86.30
61386;DHT22;47256;18.904;-99.054;2023-02-23T13:52:40;16.60;84.30
61386;DHT22;47256;18.904;-99.054;2023-02-23T13:55:31;16.70;85.30
61386;DHT22;47256;18.904;-99.054;2023-02-23T13:58:26;16.80;86.00
61386;DHT22;47256;18.904;-99.054;2023-02-23T14:03:45;17.20;85.40
61386;DHT22;47256;18.904;-99.054;2023-02-23T14:06:16;17.30;85.60
61386;DHT22;47256;18.904;-99.054;2023-02-23T14:08:49;17.40;84.20
61386;DHT22;47256;18.904;-99.054;2023-02-23T14:22:33;18.10;82.30
61386;DHT22;47256;18.904;-99.054;2023-02-23T14:28:00;18.40;83.30
61386;DHT22;47256;18.904;-99.054;2023-02-23T14:30:30;18.40;81.60
61386;DHT22;47256;18.904;-99.054;2023-02-23T14:33:36;18.60;80.90
61386;DHT22;47256;18.904;-99.054;2023-02-23T14:46:35;19.30;81.20
61386;DHT22;47256;18.904;-99.054;2023-02-23T14:49:09;19.40;80.90
61386;DHT22;47256;18.904;-99.054;2023-02-23T14:51:51;19.60;78.20
61386;DHT22;47256;18.904;-99.054;2023-02-23T14:54:35;19.70;78.90
61386;DHT22;47256;18.904;-99.054;2023-02-23T14:57:25;19.90;77.80
61386;DHT22;47256;18.904;-99.054;2023-02-23T15:00:00;20.00;76.80
61386;DHT22;47256;18.904;-99.054;2023-02-23T15:02:29;20.20;79.00
61386;DHT22;47256;18.904;-99.054;2023-02-23T15:04:56;20.30;76.50
61386;DHT22;47256;18.904;-99.054;2023-02-23T15:07:39;20.50;76.90
61386;DHT22;47256;18.904;-99.054;2023-02-23T15:10:19;20.60;76.20
61386;DHT22;47256;18.904;-99.054;2023-02-23T15:12:48;20.80;77.00
61386;DHT22;47256;18.904;-99.054;2023-02-23T15:15:22;20.90;78.00
61386;DHT22;47256;18.904;-99.054;2023-02-23T15:17:54;21.10;77.00
61386;DHT22;47256;18.904;-99.054;2023-02-23T15:20:28;21.20;75.60
61386;DHT22;47256;18.904;-99.054;2023-02-23T15:23:02;21.40;77.10
61386;DHT22;47256;18.904;-99.054;2023-02-23T15:25:38;21.50;75.90
61386;DHT22;47256;18.904;-99.054;2023-02-23T15:28:26;21.70;77.20
61386;DHT22;47256;18.904;-99.054;2023-02-23T15:31:02;22.00;74.30
61386;DHT22;47256;18.904;-99.054;2023-02-23T15:33:30;22.10;75.40
61386;DHT22;47256;18.904;-99.054;2023-02-23T15:36:13;22.30;74.00
61386;DHT22;47256;18.904;-99.054;2023-02-23T15:38:48;22.50;74.50
61386;DHT22;47256;18.904;-99.054;2023-02-23T15:43:51;22.80;72.10
61386;DHT22;47256;18.904;-99.054;2023-02-23T15:46:24;22.90;73.00
61386;DHT22;47256;18.904;-99.054;2023-02-23T15:48:54;23.10;71.70
61386;DHT22;47256;18.904;-99.054;2023-02-23T15:51:35;23.20;73.10
61386;DHT22;47256;18.904;-99.054;2023-02-23T15:54:11;23.50;71.00
61386;DHT22;47256;18.904;-99.054;2023-02-23T15:56:48;23.60;71.00
61386;DHT22;47256;18.904;-99.054;2023-02-23T15:59:21;23.70;68.80
61386;DHT22;47256;18.904;-99.054;2023-02-23T16:01:51;23.80;68.80
61386;DHT22;47256;18.904;-99.054;2023-02-23T16:04:27;23.90;70.70
61386;DHT22;47256;18.904;-99.054;2023-02-23T16:07:08;24.10;70.50
61386;DHT22;47256;18.904;-99.054;2023-02-23T16:09:45;24.20;69.90
61386;DHT22;47256;18.904;-99.054;2023-02-23T16:12:20;24.40;68.20
61386;DHT22;47256;18.904;-99.054;2023-02-23T16:14:49;24.50;67.90
61386;DHT22;47256;18.904;-99.054;2023-02-23T16:20:02;24.80;65.70
61386;DHT22;47256;18.904;-99.054;2023-02-23T16:22:33;24.90;64.90
61386;DHT22;47256;18.904;-99.054;2023-02-23T16:25:06;25.00;67.00
61386;DHT22;47256;18.904;-99.054;2023-02-23T16:27:36;25.10;68.50
61386;DHT22;47256;18.904;-99.054;2023-02-23T16:30:18;25.30;64.10
61386;DHT22;47256;18.904;-99.054;2023-02-23T16:35:37;25.70;66.90
61386;DHT22;47256;18.904;-99.054;2023-02-23T16:38:12;25.80;64.20
61386;DHT22;47256;18.904;-99.054;2023-02-23T16:40:40;25.90;66.00
61386;DHT22;47256;18.904;-99.054;2023-02-23T16:43:08;25.90;63.90
61386;DHT22;47256;18.904;-99.054;2023-02-23T16:45:38;25.80;64.00
61386;DHT22;47256;18.904;-99.054;2023-02-23T16:48:14;26.00;63.10
61386;DHT22;47256;18.904;-99.054;2023-02-23T16:50:43;26.10;63.20
61386;DHT22;47256;18.904;-99.054;2023-02-23T16:53:12;26.30;64.70
61386;DHT22;47256;18.904;-99.054;2023-02-23T16:55:46;26.50;63.20
61386;DHT22;47256;18.904;-99.054;2023-02-23T16:58:18;26.60;63.10
61386;DHT22;47256;18.904;-99.054;2023-02-23T17:00:46;26.70;63.00
61386;DHT22;47256;18.904;-99.054;2023-02-23T17:03:25;26.80;61.10
61386;DHT22;47256;18.904;-99.054;2023-02-23T17:05:54;26.90;60.70
61386;DHT22;47256;18.904;-99.054;2023-02-23T17:08:22;27.10;60.40
61386;DHT22;47256;18.904;-99.054;2023-02-23T17:10:52;27.10;59.10
61386;DHT22;47256;18.904;-99.054;2023-02-23T17:13:24;27.30;60.70
61386;DHT22;47256;18.904;-99.054;2023-02-23T17:15:54;27.50;61.90
61386;DHT22;47256;18.904;-99.054;2023-02-23T17:18:26;27.70;59.20
61386;DHT22;47256;18.904;-99.054;2023-02-23T17:20:54;27.70;58.80
61386;DHT22;47256;18.904;-99.054;2023-02-23T17:23:24;27.80;59.60
61386;DHT22;47256;18.904;-99.054;2023-02-23T17:25:53;27.80;59.00
61386;DHT22;47256;18.904;-99.054;2023-02-23T17:28:24;27.90;59.70
61386;DHT22;47256;18.904;-99.054;2023-02-23T17:30:51;27.90;58.30
61386;DHT22;47256;18.904;-99.054;2023-02-23T17:33:20;28.00;59.30
61386;DHT22;47256;18.904;-99.054;2023-02-23T17:35:53;28.10;57.80
61386;DHT22;47256;18.904;-99.054;2023-02-23T17:38:21;28.30;57.00
61386;DHT22;47256;18.904;-99.054;2023-02-23T17:40:48;28.40;58.30
61386;DHT22;47256;18.904;-99.054;2023-02-23T17:43:16;28.50;57.90
61386;DHT22;47256;18.904;-99.054;2023-02-23T17:45:47;28.60;59.40
61386;DHT22;47256;18.904;-99.054;2023-02-23T17:48:14;28.80;57.50
61386;DHT22;47256;18.904;-99.054;2023-02-23T17:50:42;28.90;56.40
61386;DHT22;47256;18.904;-99.054;2023-02-23T17:53:09;29.00;57.80
61386;DHT22;47256;18.904;-99.054;2023-02-23T17:55:37;29.00;56.00
61386;DHT22;47256;18.904;-99.054;2023-02-23T17:58:04;29.10;56.60
61386;DHT22;47256;18.904;-99.054;2023-02-23T18:00:31;29.10;57.90
61386;DHT22;47256;18.904;-99.054;2023-02-23T18:03:03;29.20;55.60
61386;DHT22;47256;18.904;-99.054;2023-02-23T18:05:30;29.20;57.50
61386;DHT22;47256;18.904;-99.054;2023-02-23T18:07:58;29.20;56.30
61386;DHT22;47256;18.904;-99.054;2023-02-23T18:10:25;29.10;57.30
61386;DHT22;47256;18.904;-99.054;2023-02-23T18:12:53;29.10;57.40
61386;DHT22;47256;18.904;-99.054;2023-02-23T18:15:20;29.10;57.70
61386;DHT22;47256;18.904;-99.054;2023-02-23T18:17:48;29.10;55.30